sensor_id;sensor_type;location;lat;lon;timestamp;temperature;humidity
56240;DHT22;42154;51.992;5.896;2022-12-11T00:00:34;2.10;99.90
56240;DHT22;42154;51.992;5.896;2022-12-11T00:03:01;2.10;99.90
56240;DHT22;42154;51.992;5.896;2022-12-11T00:05:27;2.10;99.90
56240;DHT22;42154;51.992;5.896;2022-12-11T00:07:52;2.10;99.90
56240;DHT22;42154;51.992;5.896;2022-12-11T00:10:18;2.10;99.90
56240;DHT22;42154;51.992;5.896;2022-12-11T00:12:44;2.10;99.90
56240;DHT22;42154;51.992;5.896;2022-12-11T00:15:09;2.20;99.90
56240;DHT22;42154;51.992;5.896;2022-12-11T00:17:37;2.10;99.90
56240;DHT22;42154;51.992;5.896;2022-12-11T00:20:03;2.10;99.90
56240;DHT22;42154;51.992;5.896;2022-12-11T00:22:30;2.10;99.90
56240;DHT22;42154;51.992;5.896;2022-12-11T00:24:55;2.10;99.90
56240;DHT22;42154;51.992;5.896;2022-12-11T00:27:21;2.10;99.90
56240;DHT22;42154;51.992;5.896;2022-12-11T00:29:47;2.10;99.90
56240;DHT22;42154;51.992;5.896;2022-12-11T00:32:12;2.10;99.90
56240;DHT22;42154;51.992;5.896;2022-12-11T00:34:38;2.10;99.90
56240;DHT22;42154;51.992;5.896;2022-12-11T00:37:05;2.10;99.90
56240;DHT22;42154;51.992;5.896;2022-12-11T00:39:31;2.10;99.90
56240;DHT22;42154;51.992;5.896;2022-12-11T00:41:57;2.20;99.90
56240;DHT22;42154;51.992;5.896;2022-12-11T00:44:23;2.20;99.90
56240;DHT22;42154;51.992;5.896;2022-12-11T00:46:48;2.20;99.90
56240;DHT22;42154;51.992;5.896;2022-12-11T00:49:14;2.30;99.90
56240;DHT22;42154;51.992;5.896;2022-12-11T00:51:40;2.20;99.90
56240;DHT22;42154;51.992;5.896;2022-12-11T00:54:05;2.30;99.90
56240;DHT22;42154;51.992;5.896;2022-12-11T00:56:32;2.20;99.90
56240;DHT22;42154;51.992;5.896;2022-12-11T00:58:58;2.20;99.90
56240;DHT22;42154;51.992;5.896;2022-12-11T01:01:24;2.10;99.90
56240;DHT22;42154;51.992;5.896;2022-12-11T01:03:51;2.30;99.90
56240;DHT22;42154;51.992;5.896;2022-12-11T01:06:20;2.20;99.90
56240;DHT22;42154;51.992;5.896;2022-12-11T01:08:47;2.20;99.90
56240;DHT22;42154;51.992;5.896;2022-12-11T01:11:33;2.30;99.90
56240;DHT22;42154;51.992;5.896;2022-12-11T01:13:59;2.20;99.90
56240;DHT22;42154;51.992;5.896;2022-12-11T01:16:24;2.20;99.90
56240;DHT22;42154;51.992;5.896;2022-12-11T01:18:50;2.20;99.90
56240;DHT22;42154;51.992;5.896;2022-12-11T01:21:16;2.30;99.90
56240;DHT22;42154;51.992;5.896;2022-12-11T01:23:41;2.30;99.90
56240;DHT22;42154;51.992;5.896;2022-12-11T01:26:12;2.30;99.90
56240;DHT22;42154;51.992;5.896;2022-12-11T01:28:39;2.30;99.90
56240;DHT22;42154;51.992;5.896;2022-12-11T01:31:12;2.30;99.90
56240;DHT22;42154;51.992;5.896;2022-12-11T01:33:38;2.20;99.90
56240;DHT22;42154;51.992;5.896;2022-12-11T01:36:13;2.20;99.90
56240;DHT22;42154;51.992;5.896;2022-12-11T01:38:39;2.30;99.90
56240;DHT22;42154;51.992;5.896;2022-12-11T01:41:05;2.20;99.90
56240;DHT22;42154;51.992;5.896;2022-12-11T01:43:31;2.20;99.90
56240;DHT22;42154;51.992;5.896;2022-12-11T01:45:57;2.20;99.90
56240;DHT22;42154;51.992;5.896;2022-12-11T01:48:26;2.20;99.90
56240;DHT22;42154;51.992;5.896;2022-12-11T01:50:57;2.30;99.90
56240;DHT22;42154;51.992;5.896;2022-12-11T01:53:30;2.30;99.90
56240;DHT22;42154;51.992;5.896;2022-12-11T01:55:57;2.30;99.90
56240;DHT22;42154;51.992;5.896;2022-12-11T01:58:26;2.30;99.90
56240;DHT22;42154;51.992;5.896;2022-12-11T02:00:54;2.30;99.90
56240;DHT22;42154;51.992;5.896;2022-12-11T02:03:21;2.30;99.90
56240;DHT22;42154;51.992;5.896;2022-12-11T02:05:47;2.40;99.90
56240;DHT22;42154;51.992;5.896;2022-12-11T02:08:13;2.30;99.90
56240;DHT22;42154;51.992;5.896;2022-12-11T02:10:55;2.40;99.90
56240;DHT22;42154;51.992;5.896;2022-12-11T02:13:42;2.30;99.90
56240;DHT22;42154;51.992;5.896;2022-12-11T02:16:34;2.30;99.90
56240;DHT22;42154;51.992;5.896;2022-12-11T02:22:15;2.30;99.90
56240;DHT22;42154;51.992;5.896;2022-12-11T02:25:08;2.30;99.90
56240;DHT22;42154;51.992;5.896;2022-12-11T02:30:31;2.20;99.90
56240;DHT22;42154;51.992;5.896;2022-12-11T02:32:58;2.20;99.90
56240;DHT22;42154;51.992;5.896;2022-12-11T02:35:33;2.30;99.90
56240;DHT22;42154;51.992;5.896;2022-12-11T02:38:09;2.30;99.90
56240;DHT22;42154;51.992;5.896;2022-12-11T02:40:39;2.30;99.90
56240;DHT22;42154;51.992;5.896;2022-12-11T02:43:07;2.30;99.90
56240;DHT22;42154;51.992;5.896;2022-12-11T02:45:36;2.30;99.90
56240;DHT22;42154;51.992;5.896;2022-12-11T02:48:04;2.30;99.90
56240;DHT22;42154;51.992;5.896;2022-12-11T02:50:32;2.30;99.90
56240;DHT22;42154;51.992;5.896;2022-12-11T02:53:02;2.30;99.90
56240;DHT22;42154;51.992;5.896;2022-12-11T02:55:30;2.30;99.90
56240;DHT22;42154;51.992;5.896;2022-12-11T02:58:06;2.30;99.90
56240;DHT22;42154;51.992;5.896;2022-12-11T03:00:34;2.40;99.90
56240;DHT22;42154;51.992;5.896;2022-12-11T03:03:00;2.30;99.90
56240;DHT22;42154;51.992;5.896;2022-12-11T03:05:26;2.30;99.90
56240;DHT22;42154;51.992;5.896;2022-12-11T03:07:52;2.30;99.90
56240;DHT22;42154;51.992;5.896;2022-12-11T03:10:19;2.30;99.90
56240;DHT22;42154;51.992;5.896;2022-12-11T03:12:47;2.30;99.90
56240;DHT22;42154;51.992;5.896;2022-12-11T03:15:16;2.30;99.90
56240;DHT22;42154;51.992;5.896;2022-12-11T03:20:42;2.30;99.90
56240;DHT22;42154;51.992;5.896;2022-12-11T03:23:11;2.40;99.90
56240;DHT22;42154;51.992;5.896;2022-12-11T03:25:58;2.30;99.90
56240;DHT22;42154;51.992;5.896;2022-12-11T03:28:33;2.40;99.90
56240;DHT22;42154;51.992;5.896;2022-12-11T03:31:08;2.40;99.90
56240;DHT22;42154;51.992;5.896;2022-12-11T03:33:39;2.30;99.90
56240;DHT22;42154;51.992;5.896;2022-12-11T03:36:12;2.30;99.90
56240;DHT22;42154;51.992;5.896;2022-12-11T03:38:46;2.30;99.90
56240;DHT22;42154;51.992;5.896;2022-12-11T03:41:18;2.30;99.90
56240;DHT22;42154;51.992;5.896;2022-12-11T03:43:47;2.30;99.90
56240;DHT22;42154;51.992;5.896;2022-12-11T03:46:19;2.30;99.90
56240;DHT22;42154;51.992;5.896;2022-12-11T03:48:47;2.40;99.90
56240;DHT22;42154;51.992;5.896;2022-12-11T03:51:14;2.40;99.90
56240;DHT22;42154;51.992;5.896;2022-12-11T03:53:41;2.40;99.90
56240;DHT22;42154;51.992;5.896;2022-12-11T03:56:09;2.40;99.90
56240;DHT22;42154;51.992;5.896;2022-12-11T03:58:36;2.40;99.90
56240;DHT22;42154;51.992;5.896;2022-12-11T04:01:02;2.40;99.90
56240;DHT22;42154;51.992;5.896;2022-12-11T04:03:28;2.40;99.90
56240;DHT22;42154;51.992;5.896;2022-12-11T04:05:54;2.40;99.90
56240;DHT22;42154;51.992;5.896;2022-12-11T04:08:21;2.50;99.90
56240;DHT22;42154;51.992;5.896;2022-12-11T04:10:47;2.50;99.90
56240;DHT22;42154;51.992;5.896;2022-12-11T04:13:34;2.50;99.90
56240;DHT22;42154;51.992;5.896;2022-12-11T04:15:59;2.50;99.90
56240;DHT22;42154;51.992;5.896;2022-12-11T04:18:25;2.50;99.90
56240;DHT22;42154;51.992;5.896;2022-12-11T04:21:09;2.50;99.90
56240;DHT22;42154;51.992;5.896;2022-12-11T04:23:54;2.50;99.90
56240;DHT22;42154;51.992;5.896;2022-12-11T04:26:38;2.50;99.90
56240;DHT22;42154;51.992;5.896;2022-12-11T04:29:04;2.50;99.90
56240;DHT22;42154;51.992;5.896;2022-12-11T04:31:30;2.50;99.90
56240;DHT22;42154;51.992;5.896;2022-12-11T04:33:55;2.50;99.90
56240;DHT22;42154;51.992;5.896;2022-12-11T04:36:21;2.50;99.90
56240;DHT22;42154;51.992;5.896;2022-12-11T04:38:47;2.60;99.90
56240;DHT22;42154;51.992;5.896;2022-12-11T04:41:15;2.50;99.90
56240;DHT22;42154;51.992;5.896;2022-12-11T04:43:41;2.50;99.90
56240;DHT22;42154;51.992;5.896;2022-12-11T04:46:16;2.60;99.90
56240;DHT22;42154;51.992;5.896;2022-12-11T04:48:43;2.60;99.90
56240;DHT22;42154;51.992;5.896;2022-12-11T04:51:09;2.60;99.90
56240;DHT22;42154;51.992;5.896;2022-12-11T04:53:35;2.70;99.90
56240;DHT22;42154;51.992;5.896;2022-12-11T04:56:04;2.60;99.90
56240;DHT22;42154;51.992;5.896;2022-12-11T04:58:30;2.60;99.90
56240;DHT22;42154;51.992;5.896;2022-12-11T05:00:55;2.60;99.90
56240;DHT22;42154;51.992;5.896;2022-12-11T05:03:21;2.60;99.90
56240;DHT22;42154;51.992;5.896;2022-12-11T05:05:49;2.60;99.90
56240;DHT22;42154;51.992;5.896;2022-12-11T05:08:19;2.60;99.90
56240;DHT22;42154;51.992;5.896;2022-12-11T05:10:53;2.60;99.90
56240;DHT22;42154;51.992;5.896;2022-12-11T05:13:19;2.60;99.90
56240;DHT22;42154;51.992;5.896;2022-12-11T05:15:45;2.60;99.90
56240;DHT22;42154;51.992;5.896;2022-12-11T05:18:11;2.60;99.90
56240;DHT22;42154;51.992;5.896;2022-12-11T05:20:36;2.60;99.90
56240;DHT22;42154;51.992;5.896;2022-12-11T05:23:02;2.70;99.90
56240;DHT22;42154;51.992;5.896;2022-12-11T05:25:28;2.70;99.90
56240;DHT22;42154;51.992;5.896;2022-12-11T05:27:53;2.70;99.90
56240;DHT22;42154;51.992;5.896;2022-12-11T05:30:19;2.70;99.90
56240;DHT22;42154;51.992;5.896;2022-12-11T05:32:45;2.70;99.90
56240;DHT22;42154;51.992;5.896;2022-12-11T05:35:11;2.70;99.90
56240;DHT22;42154;51.992;5.896;2022-12-11T05:37:36;2.70;99.90
56240;DHT22;42154;51.992;5.896;2022-12-11T05:40:03;2.70;99.90
56240;DHT22;42154;51.992;5.896;2022-12-11T05:42:31;2.60;99.90
56240;DHT22;42154;51.992;5.896;2022-12-11T05:44:57;2.70;99.90
56240;DHT22;42154;51.992;5.896;2022-12-11T05:47:23;2.60;99.90
56240;DHT22;42154;51.992;5.896;2022-12-11T05:49:50;2.70;99.90
56240;DHT22;42154;51.992;5.896;2022-12-11T05:52:16;2.70;99.90
56240;DHT22;42154;51.992;5.896;2022-12-11T05:54:42;2.70;99.90
56240;DHT22;42154;51.992;5.896;2022-12-11T05:57:08;2.70;99.90
56240;DHT22;42154;51.992;5.896;2022-12-11T05:59:34;2.60;99.90
56240;DHT22;42154;51.992;5.896;2022-12-11T06:02:00;2.70;99.90
56240;DHT22;42154;51.992;5.896;2022-12-11T06:04:25;2.70;99.90
56240;DHT22;42154;51.992;5.896;2022-12-11T06:06:53;2.60;99.90
56240;DHT22;42154;51.992;5.896;2022-12-11T06:09:19;2.70;99.90
56240;DHT22;42154;51.992;5.896;2022-12-11T06:11:45;2.60;99.90
56240;DHT22;42154;51.992;5.896;2022-12-11T06:14:11;2.60;99.90
56240;DHT22;42154;51.992;5.896;2022-12-11T06:16:37;2.60;99.90
56240;DHT22;42154;51.992;5.896;2022-12-11T06:19:03;2.60;99.90
56240;DHT22;42154;51.992;5.896;2022-12-11T06:21:30;2.60;99.90
56240;DHT22;42154;51.992;5.896;2022-12-11T06:24:00;2.60;99.90
56240;DHT22;42154;51.992;5.896;2022-12-11T06:26:27;2.80;99.90
56240;DHT22;42154;51.992;5.896;2022-12-11T06:28:53;2.60;99.90
56240;DHT22;42154;51.992;5.896;2022-12-11T06:31:20;2.60;99.90
56240;DHT22;42154;51.992;5.896;2022-12-11T06:33:46;2.60;99.90
56240;DHT22;42154;51.992;5.896;2022-12-11T06:36:14;2.60;99.90
56240;DHT22;42154;51.992;5.896;2022-12-11T06:38:40;2.70;99.90
56240;DHT22;42154;51.992;5.896;2022-12-11T06:41:06;2.60;99.90
56240;DHT22;42154;51.992;5.896;2022-12-11T06:43:34;2.60;99.90
56240;DHT22;42154;51.992;5.896;2022-12-11T06:46:05;2.60;99.90
56240;DHT22;42154;51.992;5.896;2022-12-11T06:48:31;2.70;99.90
56240;DHT22;42154;51.992;5.896;2022-12-11T06:50:57;2.70;99.90
56240;DHT22;42154;51.992;5.896;2022-12-11T06:53:23;2.60;99.90
56240;DHT22;42154;51.992;5.896;2022-12-11T06:55:49;2.60;99.90
56240;DHT22;42154;51.992;5.896;2022-12-11T06:58:14;2.60;99.90
56240;DHT22;42154;51.992;5.896;2022-12-11T07:00:41;2.70;99.90
56240;DHT22;42154;51.992;5.896;2022-12-11T07:03:08;2.60;99.90
56240;DHT22;42154;51.992;5.896;2022-12-11T07:05:34;2.60;99.90
56240;DHT22;42154;51.992;5.896;2022-12-11T07:08:00;2.50;99.90
56240;DHT22;42154;51.992;5.896;2022-12-11T07:10:26;2.50;99.90
56240;DHT22;42154;51.992;5.896;2022-12-11T07:12:52;2.60;99.90
56240;DHT22;42154;51.992;5.896;2022-12-11T07:15:19;2.50;99.90
56240;DHT22;42154;51.992;5.896;2022-12-11T07:17:45;2.60;99.90
56240;DHT22;42154;51.992;5.896;2022-12-11T07:20:10;2.60;99.90
56240;DHT22;42154;51.992;5.896;2022-12-11T07:22:36;2.60;99.90
56240;DHT22;42154;51.992;5.896;2022-12-11T07:25:02;2.70;99.90
56240;DHT22;42154;51.992;5.896;2022-12-11T07:27:29;2.60;99.90
56240;DHT22;42154;51.992;5.896;2022-12-11T07:29:54;2.60;99.90
56240;DHT22;42154;51.992;5.896;2022-12-11T07:32:21;2.60;99.90
56240;DHT22;42154;51.992;5.896;2022-12-11T07:34:49;2.60;99.90
56240;DHT22;42154;51.992;5.896;2022-12-11T07:37:16;2.50;99.90
56240;DHT22;42154;51.992;5.896;2022-12-11T07:39:42;2.50;99.90
56240;DHT22;42154;51.992;5.896;2022-12-11T07:42:07;2.50;99.90
56240;DHT22;42154;51.992;5.896;2022-12-11T07:44:33;2.50;99.90
56240;DHT22;42154;51.992;5.896;2022-12-11T07:46:59;2.50;99.90
56240;DHT22;42154;51.992;5.896;2022-12-11T07:49:24;2.50;99.90
56240;DHT22;42154;51.992;5.896;2022-12-11T07:51:50;2.50;99.90
56240;DHT22;42154;51.992;5.896;2022-12-11T07:54:16;2.40;99.90
56240;DHT22;42154;51.992;5.896;2022-12-11T07:56:43;2.40;99.90
56240;DHT22;42154;51.992;5.896;2022-12-11T07:59:09;2.50;99.90
56240;DHT22;42154;51.992;5.896;2022-12-11T08:01:37;2.40;99.90
56240;DHT22;42154;51.992;5.896;2022-12-11T08:04:05;2.50;99.90
56240;DHT22;42154;51.992;5.896;2022-12-11T08:06:34;2.40;99.90
56240;DHT22;42154;51.992;5.896;2022-12-11T08:09:02;2.40;99.90
56240;DHT22;42154;51.992;5.896;2022-12-11T08:11:28;2.40;99.90
56240;DHT22;42154;51.992;5.896;2022-12-11T08:13:55;2.50;99.90
56240;DHT22;42154;51.992;5.896;2022-12-11T08:16:21;2.50;99.90
56240;DHT22;42154;51.992;5.896;2022-12-11T08:18:48;2.50;99.90
56240;DHT22;42154;51.992;5.896;2022-12-11T08:21:19;2.50;99.90
56240;DHT22;42154;51.992;5.896;2022-12-11T08:23:45;2.50;99.90
56240;DHT22;42154;51.992;5.896;2022-12-11T08:26:23;2.50;99.90
56240;DHT22;42154;51.992;5.896;2022-12-11T08:28:49;2.50;99.90
56240;DHT22;42154;51.992;5.896;2022-12-11T08:31:16;2.60;99.90
56240;DHT22;42154;51.992;5.896;2022-12-11T08:33:42;2.50;99.90
56240;DHT22;42154;51.992;5.896;2022-12-11T08:36:11;2.50;99.90
56240;DHT22;42154;51.992;5.896;2022-12-11T08:38:37;2.50;99.90
56240;DHT22;42154;51.992;5.896;2022-12-11T08:41:11;2.50;99.90
56240;DHT22;42154;51.992;5.896;2022-12-11T08:43:37;2.60;99.90
56240;DHT22;42154;51.992;5.896;2022-12-11T08:46:03;2.50;99.90
56240;DHT22;42154;51.992;5.896;2022-12-11T08:48:29;2.60;99.90
56240;DHT22;42154;51.992;5.896;2022-12-11T08:51:01;2.60;99.90
56240;DHT22;42154;51.992;5.896;2022-12-11T08:53:28;2.60;99.90
56240;DHT22;42154;51.992;5.896;2022-12-11T08:56:03;2.50;99.90
56240;DHT22;42154;51.992;5.896;2022-12-11T08:58:29;2.60;99.90
56240;DHT22;42154;51.992;5.896;2022-12-11T09:00:55;2.50;99.90
56240;DHT22;42154;51.992;5.896;2022-12-11T09:03:20;2.50;99.90
56240;DHT22;42154;51.992;5.896;2022-12-11T09:05:46;2.50;99.90
56240;DHT22;42154;51.992;5.896;2022-12-11T09:08:12;2.50;99.90
56240;DHT22;42154;51.992;5.896;2022-12-11T09:10:39;2.60;99.90
56240;DHT22;42154;51.992;5.896;2022-12-11T09:13:04;2.60;99.90
56240;DHT22;42154;51.992;5.896;2022-12-11T09:15:30;2.60;99.90
56240;DHT22;42154;51.992;5.896;2022-12-11T09:17:56;2.60;99.90
56240;DHT22;42154;51.992;5.896;2022-12-11T09:20:21;2.70;99.90
56240;DHT22;42154;51.992;5.896;2022-12-11T09:22:47;2.70;99.90
56240;DHT22;42154;51.992;5.896;2022-12-11T09:25:13;2.70;99.90
56240;DHT22;42154;51.992;5.896;2022-12-11T09:27:39;2.70;99.90
56240;DHT22;42154;51.992;5.896;2022-12-11T09:30:05;2.70;99.90
56240;DHT22;42154;51.992;5.896;2022-12-11T09:32:31;2.70;99.90
56240;DHT22;42154;51.992;5.896;2022-12-11T09:34:56;2.70;99.90
56240;DHT22;42154;51.992;5.896;2022-12-11T09:37:22;2.70;99.90
56240;DHT22;42154;51.992;5.896;2022-12-11T09:39:48;2.70;99.90
56240;DHT22;42154;51.992;5.896;2022-12-11T09:42:23;2.70;99.90
56240;DHT22;42154;51.992;5.896;2022-12-11T09:44:54;2.70;99.90
56240;DHT22;42154;51.992;5.896;2022-12-11T09:47:48;2.70;99.90
56240;DHT22;42154;51.992;5.896;2022-12-11T09:52:58;2.80;99.90
56240;DHT22;42154;51.992;5.896;2022-12-11T09:55:38;2.70;99.90
56240;DHT22;42154;51.992;5.896;2022-12-11T09:58:30;2.80;99.90
56240;DHT22;42154;51.992;5.896;2022-12-11T10:01:21;2.80;99.90
56240;DHT22;42154;51.992;5.896;2022-12-11T10:09:50;2.80;99.90
56240;DHT22;42154;51.992;5.896;2022-12-11T10:12:41;2.80;99.90
56240;DHT22;42154;51.992;5.896;2022-12-11T10:15:29;2.80;99.90
56240;DHT22;42154;51.992;5.896;2022-12-11T10:17:58;2.80;99.90
56240;DHT22;42154;51.992;5.896;2022-12-11T10:20:32;2.80;99.90
56240;DHT22;42154;51.992;5.896;2022-12-11T10:23:02;2.80;99.90
56240;DHT22;42154;51.992;5.896;2022-12-11T10:25:32;2.90;99.90
56240;DHT22;42154;51.992;5.896;2022-12-11T10:28:11;2.90;99.90
56240;DHT22;42154;51.992;5.896;2022-12-11T10:36:02;3.00;99.90
56240;DHT22;42154;51.992;5.896;2022-12-11T10:38:33;3.00;99.90
56240;DHT22;42154;51.992;5.896;2022-12-11T10:41:16;3.00;99.90
56240;DHT22;42154;51.992;5.896;2022-12-11T10:43:45;3.10;99.90
56240;DHT22;42154;51.992;5.896;2022-12-11T10:46:20;3.00;99.90
56240;DHT22;42154;51.992;5.896;2022-12-11T10:54:34;3.00;99.90
56240;DHT22;42154;51.992;5.896;2022-12-11T10:56:53;3.10;99.90
56240;DHT22;42154;51.992;5.896;2022-12-11T11:01:56;3.10;99.90
56240;DHT22;42154;51.992;5.896;2022-12-11T11:04:36;3.10;99.90
56240;DHT22;42154;51.992;5.896;2022-12-11T11:07:14;3.10;99.90
56240;DHT22;42154;51.992;5.896;2022-12-11T11:09:41;3.10;99.90
56240;DHT22;42154;51.992;5.896;2022-12-11T11:12:24;3.10;99.90
56240;DHT22;42154;51.992;5.896;2022-12-11T11:14:58;3.10;99.90
56240;DHT22;42154;51.992;5.896;2022-12-11T11:17:24;3.10;99.90
56240;DHT22;42154;51.992;5.896;2022-12-11T11:19:51;3.10;99.90
56240;DHT22;42154;51.992;5.896;2022-12-11T11:22:18;3.10;99.90
56240;DHT22;42154;51.992;5.896;2022-12-11T11:24:57;3.10;99.90
56240;DHT22;42154;51.992;5.896;2022-12-11T11:27:35;3.10;99.90
56240;DHT22;42154;51.992;5.896;2022-12-11T11:30:16;3.10;99.90
56240;DHT22;42154;51.992;5.896;2022-12-11T11:32:42;3.10;99.90
56240;DHT22;42154;51.992;5.896;2022-12-11T11:37:40;3.10;99.90
56240;DHT22;42154;51.992;5.896;2022-12-11T11:40:28;3.10;99.90
56240;DHT22;42154;51.992;5.896;2022-12-11T11:43:19;3.10;99.90
56240;DHT22;42154;51.992;5.896;2022-12-11T11:45:58;3.20;99.90
56240;DHT22;42154;51.992;5.896;2022-12-11T11:50:55;3.10;99.90
56240;DHT22;42154;51.992;5.896;2022-12-11T11:53:31;3.10;99.90
56240;DHT22;42154;51.992;5.896;2022-12-11T11:58:44;3.10;99.90
56240;DHT22;42154;51.992;5.896;2022-12-11T12:01:18;3.10;99.90
56240;DHT22;42154;51.992;5.896;2022-12-11T12:03:46;3.10;99.90
56240;DHT22;42154;51.992;5.896;2022-12-11T12:06:41;3.20;99.90
56240;DHT22;42154;51.992;5.896;2022-12-11T12:09:21;3.20;99.90
56240;DHT22;42154;51.992;5.896;2022-12-11T12:12:19;3.20;99.90
56240;DHT22;42154;51.992;5.896;2022-12-11T12:15:01;3.20;99.90
56240;DHT22;42154;51.992;5.896;2022-12-11T12:17:55;3.20;99.90
56240;DHT22;42154;51.992;5.896;2022-12-11T12:25:53;3.20;99.90
56240;DHT22;42154;51.992;5.896;2022-12-11T12:31:49;3.20;99.90
56240;DHT22;42154;51.992;5.896;2022-12-11T12:34:42;3.20;99.90
56240;DHT22;42154;51.992;5.896;2022-12-11T12:37:51;3.20;99.90
56240;DHT22;42154;51.992;5.896;2022-12-11T12:46:18;3.00;99.90
56240;DHT22;42154;51.992;5.896;2022-12-11T12:48:45;3.00;99.90
56240;DHT22;42154;51.992;5.896;2022-12-11T12:51:15;3.10;99.90
56240;DHT22;42154;51.992;5.896;2022-12-11T12:53:48;3.10;99.90
56240;DHT22;42154;51.992;5.896;2022-12-11T12:56:17;3.10;99.90
56240;DHT22;42154;51.992;5.896;2022-12-11T12:58:45;3.10;99.90
56240;DHT22;42154;51.992;5.896;2022-12-11T13:09:10;3.20;99.90
56240;DHT22;42154;51.992;5.896;2022-12-11T13:11:37;3.20;99.90
56240;DHT22;42154;51.992;5.896;2022-12-11T13:14:07;3.10;99.90
56240;DHT22;42154;51.992;5.896;2022-12-11T13:16:41;3.20;99.90
56240;DHT22;42154;51.992;5.896;2022-12-11T13:24:30;3.20;99.90
56240;DHT22;42154;51.992;5.896;2022-12-11T13:27:10;3.20;99.90
56240;DHT22;42154;51.992;5.896;2022-12-11T13:29:46;3.20;99.90
56240;DHT22;42154;51.992;5.896;2022-12-11T13:34:43;3.20;99.90
56240;DHT22;42154;51.992;5.896;2022-12-11T13:37:29;3.20;99.90
56240;DHT22;42154;51.992;5.896;2022-12-11T13:39:59;3.20;99.90
56240;DHT22;42154;51.992;5.896;2022-12-11T13:43:04;3.20;99.90
56240;DHT22;42154;51.992;5.896;2022-12-11T13:48:26;3.20;99.90
56240;DHT22;42154;51.992;5.896;2022-12-11T13:50:54;3.10;99.90
56240;DHT22;42154;51.992;5.896;2022-12-11T13:53:20;3.10;99.90
56240;DHT22;42154;51.992;5.896;2022-12-11T13:55:59;3.10;99.90
56240;DHT22;42154;51.992;5.896;2022-12-11T13:58:25;3.10;99.90
56240;DHT22;42154;51.992;5.896;2022-12-11T14:01:07;3.10;99.90
56240;DHT22;42154;51.992;5.896;2022-12-11T14:03:42;3.30;99.90
56240;DHT22;42154;51.992;5.896;2022-12-11T14:06:11;3.10;99.90
56240;DHT22;42154;51.992;5.896;2022-12-11T14:08:38;3.10;99.90
56240;DHT22;42154;51.992;5.896;2022-12-11T14:11:06;3.10;99.90
56240;DHT22;42154;51.992;5.896;2022-12-11T14:13:37;3.20;99.90
56240;DHT22;42154;51.992;5.896;2022-12-11T14:16:05;3.20;99.90
56240;DHT22;42154;51.992;5.896;2022-12-11T14:18:32;3.20;99.90
56240;DHT22;42154;51.992;5.896;2022-12-11T14:21:04;3.10;99.90
56240;DHT22;42154;51.992;5.896;2022-12-11T14:23:35;3.10;99.90
56240;DHT22;42154;51.992;5.896;2022-12-11T14:28:43;3.10;99.90
56240;DHT22;42154;51.992;5.896;2022-12-11T14:31:13;3.10;99.90
56240;DHT22;42154;51.992;5.896;2022-12-11T14:33:44;3.10;99.90
56240;DHT22;42154;51.992;5.896;2022-12-11T14:36:13;3.10;99.90
56240;DHT22;42154;51.992;5.896;2022-12-11T14:38:50;3.10;99.90
56240;DHT22;42154;51.992;5.896;2022-12-11T14:41:26;3.10;99.90
56240;DHT22;42154;51.992;5.896;2022-12-11T14:43:58;3.10;99.90
56240;DHT22;42154;51.992;5.896;2022-12-11T14:46:44;3.10;99.90
56240;DHT22;42154;51.992;5.896;2022-12-11T14:49:20;3.10;99.90
56240;DHT22;42154;51.992;5.896;2022-12-11T14:51:49;3.10;99.90
56240;DHT22;42154;51.992;5.896;2022-12-11T14:54:32;3.10;99.90
56240;DHT22;42154;51.992;5.896;2022-12-11T14:57:00;3.10;99.90
56240;DHT22;42154;51.992;5.896;2022-12-11T14:59:28;3.00;99.90
56240;DHT22;42154;51.992;5.896;2022-12-11T15:02:02;3.10;99.90
56240;DHT22;42154;51.992;5.896;2022-12-11T15:04:32;3.00;99.90
56240;DHT22;42154;51.992;5.896;2022-12-11T15:06:58;3.00;99.90
56240;DHT22;42154;51.992;5.896;2022-12-11T15:09:27;3.00;99.90
56240;DHT22;42154;51.992;5.896;2022-12-11T15:12:05;3.00;99.90
56240;DHT22;42154;51.992;5.896;2022-12-11T15:14:32;3.00;99.90
56240;DHT22;42154;51.992;5.896;2022-12-11T15:16:59;3.00;99.90
56240;DHT22;42154;51.992;5.896;2022-12-11T15:19:29;3.00;99.90
56240;DHT22;42154;51.992;5.896;2022-12-11T15:22:04;3.00;99.90
56240;DHT22;42154;51.992;5.896;2022-12-11T15:24:37;3.00;99.90
56240;DHT22;42154;51.992;5.896;2022-12-11T15:27:04;3.00;99.90
56240;DHT22;42154;51.992;5.896;2022-12-11T15:34:51;2.90;99.90
56240;DHT22;42154;51.992;5.896;2022-12-11T15:37:31;2.90;99.90
56240;DHT22;42154;51.992;5.896;2022-12-11T15:40:00;2.90;99.90
56240;DHT22;42154;51.992;5.896;2022-12-11T15:42:36;2.90;99.90
56240;DHT22;42154;51.992;5.896;2022-12-11T15:45:06;2.90;99.90
56240;DHT22;42154;51.992;5.896;2022-12-11T15:47:32;2.90;99.90
56240;DHT22;42154;51.992;5.896;2022-12-11T15:50:11;3.00;99.90
56240;DHT22;42154;51.992;5.896;2022-12-11T15:52:40;2.90;99.90
56240;DHT22;42154;51.992;5.896;2022-12-11T15:55:05;2.90;99.90
56240;DHT22;42154;51.992;5.896;2022-12-11T15:57:31;2.90;99.90
56240;DHT22;42154;51.992;5.896;2022-12-11T15:59:57;2.90;99.90
56240;DHT22;42154;51.992;5.896;2022-12-11T16:02:23;2.90;99.90
56240;DHT22;42154;51.992;5.896;2022-12-11T16:04:51;2.90;99.90
56240;DHT22;42154;51.992;5.896;2022-12-11T16:07:24;2.90;99.90
56240;DHT22;42154;51.992;5.896;2022-12-11T16:09:51;2.90;99.90
56240;DHT22;42154;51.992;5.896;2022-12-11T16:12:17;2.90;99.90
56240;DHT22;42154;51.992;5.896;2022-12-11T16:14:45;2.90;99.90
56240;DHT22;42154;51.992;5.896;2022-12-11T16:17:13;2.90;99.90
56240;DHT22;42154;51.992;5.896;2022-12-11T16:19:39;2.90;99.90
56240;DHT22;42154;51.992;5.896;2022-12-11T16:22:05;2.90;99.90
56240;DHT22;42154;51.992;5.896;2022-12-11T16:24:33;2.90;99.90
56240;DHT22;42154;51.992;5.896;2022-12-11T16:26:59;2.80;99.90
56240;DHT22;42154;51.992;5.896;2022-12-11T16:29:24;2.90;99.90
56240;DHT22;42154;51.992;5.896;2022-12-11T16:31:50;2.90;99.90
56240;DHT22;42154;51.992;5.896;2022-12-11T16:34:16;2.90;99.90
56240;DHT22;42154;51.992;5.896;2022-12-11T16:36:41;2.90;99.90
56240;DHT22;42154;51.992;5.896;2022-12-11T16:39:10;2.90;99.90
56240;DHT22;42154;51.992;5.896;2022-12-11T16:41:36;2.90;99.90
56240;DHT22;42154;51.992;5.896;2022-12-11T16:44:01;2.90;99.90
56240;DHT22;42154;51.992;5.896;2022-12-11T16:46:28;2.90;99.90
56240;DHT22;42154;51.992;5.896;2022-12-11T16:48:54;2.90;99.90
56240;DHT22;42154;51.992;5.896;2022-12-11T16:51:19;2.90;99.90
56240;DHT22;42154;51.992;5.896;2022-12-11T16:53:46;2.90;99.90
56240;DHT22;42154;51.992;5.896;2022-12-11T16:56:11;2.90;99.90
56240;DHT22;42154;51.992;5.896;2022-12-11T16:58:37;2.90;99.90
56240;DHT22;42154;51.992;5.896;2022-12-11T17:01:12;2.90;99.90
56240;DHT22;42154;51.992;5.896;2022-12-11T17:03:38;2.80;99.90
56240;DHT22;42154;51.992;5.896;2022-12-11T17:06:11;2.80;99.90
56240;DHT22;42154;51.992;5.896;2022-12-11T17:08:38;2.80;99.90
56240;DHT22;42154;51.992;5.896;2022-12-11T17:11:05;2.80;99.90
56240;DHT22;42154;51.992;5.896;2022-12-11T17:13:32;2.80;99.90
56240;DHT22;42154;51.992;5.896;2022-12-11T17:15:58;2.80;99.90
56240;DHT22;42154;51.992;5.896;2022-12-11T17:18:23;2.90;99.90
56240;DHT22;42154;51.992;5.896;2022-12-11T17:20:49;2.80;99.90